createdAt,value
2022-08-21T00:02:02.521Z,1.13
2022-08-21T00:04:33.463Z,1.70
2022-08-21T00:07:03.743Z,1.10
2022-08-21T00:09:32.720Z,1.70
2022-08-21T00:12:01.724Z,1.30
2022-08-21T00:14:31.294Z,1.57
2022-08-21T00:17:03.794Z,1.47
2022-08-21T00:19:35.839Z,1.27
2022-08-21T00:22:04.977Z,1.40
2022-08-21T00:24:33.885Z,1.67
2022-08-21T00:27:03.191Z,1.77
2022-08-21T00:29:33.198Z,1.03
2022-08-21T00:32:02.197Z,1.53
2022-08-21T00:34:32.819Z,1.50
2022-08-21T00:37:02.507Z,1.50
2022-08-21T00:39:31.355Z,1.80
2022-08-21T00:42:00.229Z,1.20
2022-08-21T00:44:29.122Z,1.60
2022-08-21T00:46:58.647Z,4.10
2022-08-21T00:49:27.687Z,1.83
2022-08-21T00:52:02.399Z,1.40
2022-08-21T00:54:34.030Z,2.00
2022-08-21T00:57:17.907Z,1.70
2022-08-21T00:59:50.706Z,1.23
2022-08-21T01:02:21.575Z,1.60
2022-08-21T01:04:51.207Z,1.83
2022-08-21T01:07:24.850Z,2.27
2022-08-21T01:09:56.803Z,2.47
2022-08-21T01:12:26.390Z,1.50
2022-08-21T01:14:56.117Z,2.00
2022-08-21T01:17:30.811Z,2.10
2022-08-21T01:20:01.068Z,1.63
2022-08-21T01:22:32.445Z,1.83
2022-08-21T01:25:09.735Z,1.90
2022-08-21T01:27:43.119Z,2.10
2022-08-21T01:30:19.750Z,2.00
2022-08-21T01:33:05.398Z,2.50
2022-08-21T01:35:34.520Z,2.30
2022-08-21T01:38:16.262Z,2.30
2022-08-21T01:40:54.302Z,1.90
2022-08-21T01:43:39.454Z,2.70
2022-08-21T01:46:09.260Z,2.50
2022-08-21T01:48:38.929Z,2.27
2022-08-21T01:51:10.288Z,2.27
2022-08-21T01:53:41.072Z,1.63
2022-08-21T01:56:16.550Z,2.37
2022-08-21T01:58:48.704Z,1.50
2022-08-21T02:01:18.143Z,2.20
2022-08-21T02:03:49.524Z,2.17
2022-08-21T02:06:19.268Z,2.20
2022-08-21T02:08:52.165Z,2.47
2022-08-21T02:11:21.617Z,2.83
2022-08-21T02:13:50.710Z,1.30
2022-08-21T02:16:19.709Z,2.60
2022-08-21T02:18:49.344Z,2.17
2022-08-21T02:21:18.257Z,2.50
2022-08-21T02:23:49.052Z,1.93
2022-08-21T02:26:18.002Z,2.13
2022-08-21T02:28:49.660Z,2.07
2022-08-21T02:31:21.405Z,1.70
2022-08-21T02:33:50.581Z,1.53
2022-08-21T02:36:20.127Z,2.00
2022-08-21T02:38:50.887Z,1.80
2022-08-21T02:41:22.234Z,2.80
2022-08-21T02:43:51.847Z,2.10
2022-08-21T02:46:22.852Z,1.90
2022-08-21T02:48:52.141Z,2.10
2022-08-21T02:51:23.879Z,1.60
2022-08-21T02:53:54.333Z,2.00
2022-08-21T02:56:23.802Z,3.37
2022-08-21T02:58:55.113Z,2.03
2022-08-21T03:01:24.745Z,1.97
2022-08-21T03:03:54.774Z,2.13
2022-08-21T03:06:25.746Z,2.20
2022-08-21T03:08:55.934Z,1.87
2022-08-21T03:11:39.462Z,1.43
2022-08-21T03:14:09.479Z,3.00
2022-08-21T03:16:39.434Z,2.70
2022-08-21T03:19:20.515Z,1.93
2022-08-21T03:21:49.238Z,2.10
2022-08-21T03:24:20.775Z,3.10
2022-08-21T03:26:52.919Z,3.20
2022-08-21T03:29:21.730Z,2.40
2022-08-21T03:31:50.673Z,2.03
2022-08-21T03:34:19.938Z,1.83
2022-08-21T03:36:51.323Z,1.97
2022-08-21T03:39:22.693Z,1.97
2022-08-21T03:41:51.722Z,2.80
2022-08-21T03:44:20.659Z,2.50
2022-08-21T03:46:50.232Z,3.03
2022-08-21T03:49:19.494Z,2.57
2022-08-21T03:51:48.593Z,2.13
2022-08-21T03:54:29.723Z,3.23
2022-08-21T03:56:58.681Z,2.13
2022-08-21T03:59:27.549Z,3.00
2022-08-21T04:01:57.901Z,2.20
2022-08-21T04:04:27.336Z,2.13
2022-08-21T04:07:02.411Z,1.80
2022-08-21T04:09:34.811Z,2.63
2022-08-21T04:12:05.141Z,1.93
2022-08-21T04:14:34.530Z,3.47
2022-08-21T04:17:03.334Z,2.23
2022-08-21T04:19:32.733Z,1.90
2022-08-21T04:22:01.991Z,1.80
2022-08-21T04:24:32.918Z,2.90
2022-08-21T04:27:01.722Z,1.90
2022-08-21T04:29:31.203Z,1.50
2022-08-21T04:32:00.642Z,1.90
2022-08-21T04:34:29.999Z,2.73
2022-08-21T04:37:00.864Z,2.00
2022-08-21T04:39:30.297Z,3.80
2022-08-21T04:42:00.720Z,2.93
2022-08-21T04:44:29.683Z,2.83
2022-08-21T04:46:59.081Z,2.57
2022-08-21T04:49:28.214Z,2.33
2022-08-21T04:51:57.421Z,3.30
2022-08-21T04:54:26.441Z,2.77
2022-08-21T04:56:58.627Z,2.20
2022-08-21T04:59:34.392Z,2.80
2022-08-21T05:02:04.362Z,2.23
2022-08-21T05:04:37.287Z,2.90
2022-08-21T05:07:10.272Z,2.97
2022-08-21T05:09:41.244Z,3.37
2022-08-21T05:12:10.621Z,2.27
2022-08-21T05:14:40.790Z,2.93
2022-08-21T05:17:15.472Z,2.80
2022-08-21T05:19:44.754Z,3.13
2022-08-21T05:22:18.055Z,3.03
2022-08-21T05:24:47.075Z,2.77
2022-08-21T05:27:17.772Z,3.67
2022-08-21T05:29:49.114Z,2.70
2022-08-21T05:32:19.466Z,2.23
2022-08-21T05:34:48.510Z,2.47
2022-08-21T05:37:17.723Z,2.37
2022-08-21T05:40:04.671Z,1.90
2022-08-21T05:42:35.887Z,2.53
2022-08-21T05:45:06.962Z,2.73
2022-08-21T05:47:36.190Z,2.83
2022-08-21T05:50:05.514Z,2.20
2022-08-21T05:52:34.629Z,2.37
2022-08-21T05:55:03.658Z,2.43
2022-08-21T05:57:32.430Z,1.93
2022-08-21T06:00:01.044Z,2.47
2022-08-21T06:02:32.298Z,3.00
2022-08-21T06:05:00.930Z,2.10
2022-08-21T06:07:30.721Z,2.53
2022-08-21T06:10:00.294Z,2.47
2022-08-21T06:12:30.600Z,2.43
2022-08-21T06:14:59.478Z,2.30
2022-08-21T06:17:28.952Z,2.20
2022-08-21T06:19:59.336Z,2.23
2022-08-21T06:22:30.206Z,1.37
2022-08-21T06:24:59.434Z,2.10
2022-08-21T06:27:28.474Z,1.57
2022-08-21T06:30:01.931Z,2.33
2022-08-21T06:32:35.771Z,1.40
2022-08-21T06:35:08.283Z,1.60
2022-08-21T06:37:37.381Z,1.13
2022-08-21T06:40:12.541Z,1.80
2022-08-21T06:42:42.891Z,1.20
2022-08-21T06:45:13.547Z,1.43
2022-08-21T06:47:43.932Z,1.70
2022-08-21T06:50:14.598Z,1.30
2022-08-21T06:52:43.625Z,1.50
2022-08-21T06:55:13.796Z,1.87
2022-08-21T06:57:52.879Z,1.43
2022-08-21T07:00:25.999Z,1.43
2022-08-21T07:02:55.959Z,1.13
2022-08-21T07:05:29.023Z,1.10
2022-08-21T07:08:01.558Z,1.50
2022-08-21T07:10:38.070Z,1.50
2022-08-21T07:13:08.293Z,1.27
2022-08-21T07:15:37.997Z,1.50
2022-08-21T07:18:08.483Z,1.90
2022-08-21T07:20:39.024Z,1.60
2022-08-21T07:23:11.714Z,2.13
2022-08-21T07:25:44.205Z,0.87
2022-08-21T07:28:14.097Z,1.23
2022-08-21T07:30:47.171Z,1.00
2022-08-21T07:33:16.235Z,0.80
2022-08-21T07:35:46.798Z,0.77
2022-08-21T07:38:15.621Z,0.83
2022-08-21T07:40:44.982Z,0.57
2022-08-21T07:43:14.132Z,0.90
2022-08-21T07:45:43.133Z,0.80
2022-08-21T07:48:12.552Z,0.57
2022-08-21T07:50:44.084Z,0.60
2022-08-21T07:53:14.450Z,0.80
2022-08-21T07:55:43.955Z,0.90
2022-08-21T07:58:14.241Z,0.50
2022-08-21T08:00:44.561Z,0.70
2022-08-21T08:03:14.208Z,1.27
2022-08-21T08:05:50.194Z,1.20
2022-08-21T08:08:20.762Z,0.60
2022-08-21T08:10:52.720Z,0.70
2022-08-21T08:13:21.756Z,0.93
2022-08-21T08:15:50.564Z,0.33
2022-08-21T08:18:20.454Z,0.60
2022-08-21T08:20:50.546Z,0.40
2022-08-21T08:23:21.076Z,0.50
2022-08-21T08:25:51.691Z,0.70
2022-08-21T08:28:20.905Z,0.50
2022-08-21T08:30:50.914Z,0.40
2022-08-21T08:33:27.062Z,0.70
2022-08-21T08:35:56.562Z,0.60
2022-08-21T08:38:35.154Z,0.60
2022-08-21T08:41:16.877Z,0.90
2022-08-21T08:43:53.907Z,0.47
2022-08-21T08:46:32.780Z,0.40
2022-08-21T08:49:08.999Z,0.87
2022-08-21T08:51:59.874Z,0.73
2022-08-21T08:54:39.590Z,0.67
2022-08-21T09:00:28.832Z,0.40
2022-08-21T09:03:01.908Z,1.43
2022-08-21T09:05:46.512Z,0.50
2022-08-21T09:08:40.406Z,0.50
2022-08-21T09:11:16.464Z,0.53
2022-08-21T09:13:55.820Z,0.30
2022-08-21T09:16:43.760Z,0.40
2022-08-21T09:19:29.252Z,0.30
2022-08-21T09:22:11.336Z,0.80
2022-08-21T09:24:52.067Z,0.93
2022-08-21T09:27:24.812Z,0.70
2022-08-21T09:29:59.865Z,0.60
2022-08-21T09:32:37.834Z,0.60
2022-08-21T09:35:11.199Z,0.90
2022-08-21T09:37:55.107Z,0.50
2022-08-21T09:40:37.862Z,1.13
2022-08-21T09:43:23.101Z,0.70
2022-08-21T09:46:11.395Z,0.60
2022-08-21T09:48:52.966Z,1.60
2022-08-21T09:51:27.108Z,0.60
2022-08-21T09:54:00.669Z,1.13
2022-08-21T09:57:02.949Z,0.60
2022-08-21T09:59:38.943Z,0.53
2022-08-21T10:02:32.918Z,0.60
2022-08-21T10:05:06.736Z,0.50
2022-08-21T10:07:38.903Z,1.10
2022-08-21T10:10:11.831Z,0.47
2022-08-21T10:12:53.235Z,0.90
2022-08-21T10:15:30.599Z,0.50
2022-08-21T10:18:09.997Z,0.53
2022-08-21T10:20:47.444Z,0.70
2022-08-21T10:23:40.948Z,0.57
2022-08-21T10:26:23.636Z,0.50
2022-08-21T10:29:10.751Z,0.40
2022-08-21T10:32:26.807Z,0.80
2022-08-21T10:39:35.902Z,0.70
2022-08-21T10:42:53.916Z,0.50
2022-08-21T10:45:44.434Z,0.50
2022-08-21T10:48:24.682Z,0.50
2022-08-21T10:51:19.202Z,0.53
2022-08-21T10:54:20.205Z,0.47
2022-08-21T10:57:03.664Z,0.60
2022-08-21T10:59:50.868Z,0.40
2022-08-21T11:02:25.164Z,0.70
2022-08-21T11:05:01.300Z,0.40
2022-08-21T11:07:35.278Z,0.90
2022-08-21T11:10:28.219Z,0.97
2022-08-21T11:13:05.338Z,1.43
2022-08-21T11:15:43.529Z,0.83
2022-08-21T11:18:29.434Z,0.70
2022-08-21T11:21:07.993Z,0.60
2022-08-21T11:23:44.249Z,0.70
2022-08-21T11:26:23.501Z,0.67
2022-08-21T11:29:04.964Z,0.40
2022-08-21T11:31:50.138Z,0.50
2022-08-21T11:34:37.466Z,0.63
2022-08-21T11:37:20.158Z,0.70
2022-08-21T11:40:02.504Z,0.33
2022-08-21T11:45:50.337Z,0.77
2022-08-21T11:48:51.595Z,0.50
2022-08-21T11:51:35.031Z,0.40
2022-08-21T11:54:19.723Z,0.50
2022-08-21T11:57:00.669Z,0.60
2022-08-21T11:59:48.323Z,0.50
2022-08-21T12:02:33.418Z,0.40
2022-08-21T12:05:13.622Z,0.50
2022-08-21T12:08:03.137Z,0.70
2022-08-21T12:10:49.331Z,0.40
2022-08-21T12:13:42.691Z,0.57
2022-08-21T12:16:25.320Z,0.30
2022-08-21T12:19:20.517Z,0.50
2022-08-21T12:22:09.828Z,0.70
2022-08-21T12:24:47.502Z,0.50
2022-08-21T12:27:27.876Z,0.50
2022-08-21T12:30:27.291Z,0.50
2022-08-21T12:33:02.713Z,0.70
2022-08-21T12:35:46.045Z,1.73
2022-08-21T12:38:35.255Z,0.90
2022-08-21T12:41:18.048Z,0.60
2022-08-21T12:43:57.668Z,0.40
2022-08-21T12:46:37.889Z,0.60
2022-08-21T12:49:18.530Z,0.40
2022-08-21T12:51:58.058Z,0.50
2022-08-21T12:57:46.231Z,1.10
2022-08-21T13:00:39.855Z,0.40
2022-08-21T13:03:25.576Z,0.40
2022-08-21T13:06:03.790Z,0.37
2022-08-21T13:08:53.312Z,0.30
2022-08-21T13:11:40.982Z,0.80
2022-08-21T13:14:24.787Z,0.20
2022-08-21T13:17:11.088Z,0.30
2022-08-21T13:26:19.894Z,0.50
2022-08-21T13:28:53.177Z,0.50
2022-08-21T13:31:33.811Z,0.60
2022-08-21T13:34:03.114Z,0.70
2022-08-21T13:36:39.448Z,0.40
2022-08-21T13:39:10.463Z,0.80
2022-08-21T13:41:42.690Z,1.00
2022-08-21T13:44:20.778Z,0.30
2022-08-21T13:46:52.824Z,0.47
2022-08-21T13:49:46.249Z,0.77
2022-08-21T13:52:22.593Z,0.77
2022-08-21T13:54:59.493Z,0.40
2022-08-21T13:57:31.908Z,0.80
2022-08-21T14:00:17.824Z,0.60
2022-08-21T14:02:52.582Z,0.77
2022-08-21T14:05:25.809Z,0.60
2022-08-21T14:08:08.023Z,0.63
2022-08-21T14:10:44.743Z,0.60
2022-08-21T14:13:37.959Z,0.60
2022-08-21T14:16:16.095Z,0.40
2022-08-21T14:18:50.987Z,0.53
2022-08-21T14:21:33.529Z,0.63
2022-08-21T14:24:07.220Z,0.70
2022-08-21T14:26:39.081Z,0.70
2022-08-21T14:29:11.570Z,1.50
2022-08-21T14:31:43.392Z,0.70
2022-08-21T14:34:19.273Z,0.90
2022-08-21T14:36:49.650Z,0.70
2022-08-21T14:39:21.507Z,1.10
2022-08-21T14:41:52.811Z,0.80
2022-08-21T14:44:22.475Z,0.83
2022-08-21T14:46:56.493Z,1.10
2022-08-21T14:49:30.004Z,0.90
2022-08-21T14:52:23.493Z,0.63
2022-08-21T14:54:55.503Z,1.27
2022-08-21T14:57:26.241Z,1.00
2022-08-21T15:00:01.926Z,0.60
2022-08-21T15:02:35.177Z,1.10
2022-08-21T15:05:05.918Z,0.80
2022-08-21T15:07:37.685Z,1.23
2022-08-21T15:10:14.286Z,0.90
2022-08-21T15:12:43.440Z,0.73
2022-08-21T15:15:13.085Z,0.60
2022-08-21T15:18:02.042Z,0.40
2022-08-21T15:27:34.650Z,0.43
2022-08-21T15:33:09.639Z,1.20
2022-08-21T15:45:42.225Z,0.87
2022-08-21T16:00:19.152Z,1.40
2022-08-21T16:06:06.018Z,0.80
2022-08-21T16:08:47.924Z,1.33
2022-08-21T16:11:19.923Z,0.70
2022-08-21T16:13:57.076Z,1.10
2022-08-21T16:16:36.985Z,0.90
2022-08-21T16:19:20.375Z,0.70
2022-08-21T16:21:51.120Z,0.70
2022-08-21T16:24:43.127Z,0.47
2022-08-21T16:27:29.715Z,1.03
2022-08-21T16:30:14.051Z,0.60
2022-08-21T16:32:58.440Z,1.03
2022-08-21T16:35:51.549Z,0.70
2022-08-21T16:38:38.770Z,0.77
2022-08-21T16:41:14.478Z,0.67
2022-08-21T16:43:59.343Z,0.83
2022-08-21T16:49:43.060Z,0.90
2022-08-21T16:52:44.203Z,0.77
2022-08-21T16:55:20.653Z,0.80
2022-08-21T17:04:58.185Z,0.90
2022-08-21T17:11:13.087Z,0.90
2022-08-21T17:14:10.880Z,0.67
2022-08-21T17:26:23.568Z,1.33
2022-08-21T17:29:14.475Z,0.77
2022-08-21T17:31:45.352Z,0.77
2022-08-21T17:34:26.197Z,1.27
2022-08-21T17:37:03.442Z,1.30
2022-08-21T17:39:35.416Z,1.43
2022-08-21T17:42:27.871Z,1.50
2022-08-21T17:45:00.040Z,1.50
2022-08-21T17:47:45.704Z,1.63
2022-08-21T17:50:29.955Z,1.33
2022-08-21T17:52:59.375Z,1.07
2022-08-21T17:55:32.616Z,0.93
2022-08-21T17:58:04.452Z,0.90
2022-08-21T18:03:23.780Z,0.73
2022-08-21T18:06:17.504Z,1.13
2022-08-21T18:08:55.372Z,1.13
2022-08-21T18:12:14.796Z,0.80
2022-08-21T18:18:02.173Z,1.53
2022-08-21T18:20:34.616Z,0.83
2022-08-21T18:23:12.665Z,1.23
2022-08-21T18:25:51.218Z,0.60
2022-08-21T18:31:20.400Z,0.87
2022-08-21T18:33:58.390Z,1.23
2022-08-21T18:36:34.120Z,0.90
2022-08-21T18:39:25.745Z,0.80
2022-08-21T18:41:54.048Z,0.60
2022-08-21T18:44:31.314Z,0.80
2022-08-21T18:47:08.660Z,1.10
2022-08-21T18:49:39.969Z,1.40
2022-08-21T18:52:20.200Z,0.90
2022-08-21T18:54:50.331Z,0.90
2022-08-21T18:57:20.993Z,0.70
2022-08-21T18:59:53.758Z,3.33
2022-08-21T19:02:26.531Z,3.67
2022-08-21T19:04:59.004Z,1.83
2022-08-21T19:07:30.892Z,2.37
2022-08-21T19:10:28.585Z,2.10
2022-08-21T19:13:09.262Z,1.13
2022-08-21T19:15:50.698Z,1.20
2022-08-21T19:18:29.761Z,0.93
2022-08-21T19:21:12.645Z,0.73
2022-08-21T19:23:54.475Z,0.77
2022-08-21T19:26:38.311Z,0.73
2022-08-21T19:29:35.405Z,0.60
2022-08-21T19:32:24.376Z,1.10
2022-08-21T19:35:12.388Z,0.93
2022-08-21T19:37:45.783Z,1.40
2022-08-21T19:40:16.853Z,1.13
2022-08-21T19:42:48.634Z,1.10
2022-08-21T19:45:18.343Z,1.20
2022-08-21T19:47:58.698Z,0.97
2022-08-21T19:50:32.192Z,1.03
2022-08-21T19:53:01.412Z,0.83
2022-08-21T19:55:30.805Z,3.43
2022-08-21T19:58:04.103Z,2.17
2022-08-21T20:00:33.937Z,1.10
2022-08-21T20:03:03.377Z,1.00
2022-08-21T20:05:39.541Z,0.73
2022-08-21T20:08:28.147Z,1.00
2022-08-21T20:11:05.732Z,1.60
2022-08-21T20:13:36.886Z,1.00
2022-08-21T20:16:12.147Z,2.43
2022-08-21T20:18:41.685Z,1.17
2022-08-21T20:21:13.620Z,1.00
2022-08-21T20:23:48.706Z,0.60
2022-08-21T20:26:20.987Z,0.50
2022-08-21T20:28:51.967Z,0.90
2022-08-21T20:31:25.244Z,0.47
2022-08-21T20:33:58.736Z,0.73
2022-08-21T20:36:30.976Z,1.13
2022-08-21T20:39:14.709Z,0.90
2022-08-21T20:41:47.774Z,0.90
2022-08-21T20:44:20.103Z,1.13
2022-08-21T20:49:54.839Z,1.00
2022-08-21T20:52:29.773Z,1.10
2022-08-21T20:55:05.476Z,0.57
2022-08-21T20:57:43.933Z,1.33
2022-08-21T21:00:16.638Z,1.30
2022-08-21T21:02:55.773Z,1.97
2022-08-21T21:05:31.432Z,1.07
2022-08-21T21:08:06.900Z,0.67
2022-08-21T21:10:44.776Z,1.10
2022-08-21T21:13:26.812Z,1.10
2022-08-21T21:16:02.767Z,1.03
2022-08-21T21:18:40.895Z,0.90
2022-08-21T21:21:18.141Z,0.80
2022-08-21T21:23:56.242Z,1.00
2022-08-21T21:26:35.636Z,1.00
2022-08-21T21:32:48.672Z,1.40
2022-08-21T21:35:32.457Z,0.57
2022-08-21T21:38:15.169Z,0.60
2022-08-21T21:40:55.004Z,0.90
2022-08-21T21:43:37.160Z,0.80
2022-08-21T21:46:18.818Z,0.93
2022-08-21T21:49:02.447Z,1.10
2022-08-21T21:51:45.637Z,0.60
2022-08-21T21:54:28.713Z,0.77
2022-08-21T21:57:04.963Z,0.50
2022-08-21T21:59:45.259Z,0.70
2022-08-21T22:02:20.081Z,1.40
2022-08-21T22:05:04.592Z,1.63
2022-08-21T22:07:46.222Z,0.83
2022-08-21T22:10:30.699Z,1.07
2022-08-21T22:13:11.749Z,0.73
2022-08-21T22:15:41.748Z,1.00
2022-08-21T22:18:16.170Z,1.70
2022-08-21T22:20:54.323Z,0.93
2022-08-21T22:23:27.947Z,1.10
2022-08-21T22:26:06.397Z,1.00
2022-08-21T22:28:41.690Z,1.33
2022-08-21T22:31:19.683Z,1.17
2022-08-21T22:34:06.023Z,0.90
2022-08-21T22:36:40.375Z,0.90
2022-08-21T22:39:17.327Z,1.17
2022-08-21T22:41:48.987Z,1.03
2022-08-21T22:44:29.234Z,0.60
2022-08-21T22:47:03.177Z,0.80
2022-08-21T22:49:38.017Z,0.60
2022-08-21T22:52:21.904Z,1.10
2022-08-21T22:54:53.152Z,1.30
2022-08-21T22:57:29.023Z,2.17
2022-08-21T23:00:02.756Z,0.83
2022-08-21T23:02:38.152Z,1.23
2022-08-21T23:05:20.604Z,0.40
2022-08-21T23:07:51.935Z,0.87
2022-08-21T23:10:27.084Z,1.00
2022-08-21T23:13:03.562Z,1.13
2022-08-21T23:16:00.238Z,0.77
2022-08-21T23:18:52.205Z,1.43
2022-08-21T23:21:38.920Z,0.80
2022-08-21T23:24:46.642Z,1.10
2022-08-21T23:27:35.863Z,0.90
2022-08-21T23:30:10.043Z,0.77
2022-08-21T23:33:16.962Z,1.07
2022-08-21T23:36:22.327Z,1.03
2022-08-21T23:39:05.119Z,0.63
2022-08-21T23:41:43.905Z,0.67
2022-08-21T23:44:27.931Z,0.73
2022-08-21T23:47:11.705Z,0.90
2022-08-21T23:52:50.388Z,0.50
2022-08-21T23:55:36.534Z,0.70
2022-08-21T23:58:18.460Z,1.03
